• Join FlightAware (Why Join?)
  • Login
  • US Flag GB Flag 
21:21 EDT


 

Airport Tracker/Info


-or-


 

Live Flight TrackerFlight Track Log ✈ N5253C ✈ 29-Apr-2013 ✈ KYIP - KYIP

Flight Track Log - Related Links

Times and Time Zones

All times are in EDT time to prevent confusion due to time zone crossing. See the N5253C flight status page for this flight to view local times or setup timezone preferences in your user account.

Time Position Orientation Groundspeed Altitude Reporting Facility
EDT Latitude Longitude Course Direction KTS MPH feet Rate Location/Type
10:37 42.2261 -83.5472 227° Southwest 70 81 1,000  Level Cleveland Center
10:38 42.2131 -83.5661 227° Southwest 78 90 1,600 660 Climbing Cleveland Center
10:39 42.1939 -83.5792 207° Southwest 81 93 2,200 660 Climbing Cleveland Center
10:40 42.1747 -83.5953 212° Southwest 86 99 2,900 360 Climbing Cleveland Center
10:41 42.1822 -83.6236 290° West 89 102 3,000  Climbing Cleveland Center
10:42 42.2028 -83.6414 327° Northwest 99 114 3,000  Level Cleveland Center
10:43 42.2258 -83.6342 13° North 95 109 3,000  Level Cleveland Center
10:44 42.2533 -83.6214 19° North 98 113 3,000  Level Cleveland Center
10:45 42.2767 -83.6028 31° Northeast 100 115 3,000  Level Cleveland Center
10:46 42.3044 -83.5789 32° Northeast 101 116 3,000  Level Cleveland Center
10:47 42.3297 -83.5633 24° Northeast 103 119 3,000 -120 Level Cleveland Center
10:48 42.3533 -83.5392 37° Northeast 103 119 2,800 -300 Descending Cleveland Center
10:49 42.3769 -83.5178 34° Northeast 97 112 2,400 -240 Descending Cleveland Center
10:50 42.3964 -83.4906 46° Northeast 102 117 2,400  Level Cleveland Center
10:51 42.4056 -83.4572 70° East 107 123 2,400  Level Cleveland Center
10:52 42.4003 -83.4175 100° East 120 138 2,400  Level Cleveland Center
10:53 42.3822 -83.3831 125° Southeast 120 138 2,400  Level Cleveland Center
10:54 42.3569 -83.4017 209° Southwest 94 108 2,400 -60 Level Cleveland Center
10:55 42.3314 -83.4200 208° Southwest 105 121 2,300 -60 Descending Cleveland Center
10:56 42.3081 -83.4386 211° Southwest 100 115 2,300 -120 Level Cleveland Center
10:57 42.2867 -83.4603 217° Southwest 91 105 2,100 -240 Descending Cleveland Center